East Detroit, Michigan
Current Conditions -  °F | °C
As of 1:53 PM on Sunday 23 Nov 2014 (Local Time) from KDET Reporting Station
Few Clouds Few Clouds  
Wind Chill: 53°   Ceiling: Unl
Heat Index: 53°   Visibility: 10mi
Dew Point: 44°   Wind: 12mph
Humidity: 71%   Direction: 150°SSE
Pressure: 29.8"   Gusts: NA
Location:  42.4657°N, 82.946°W
Report Text: KDET 231853Z 15010KT 10SM FEW044 12/07 A2980 RMK AO2 SLP092 T01170067
Loading
Personal Weather Stations






























Interactive Weather Map New forecast layout! Learn more

10-Day Weather Forecast

Advertisements
Track Severe Weather on mobile